createdAt,value
2018-12-24T00:04:56.135Z,4.966125
2018-12-24T00:10:18.895Z,4.966125
2018-12-24T00:15:41.637Z,4.956055
2018-12-24T00:21:04.300Z,4.986267
2018-12-24T00:26:27.060Z,5.016479
2018-12-24T00:31:49.934Z,5.036621
2018-12-24T00:37:12.643Z,5.036621
2018-12-24T00:42:35.304Z,5.046692
2018-12-24T00:47:58.955Z,5.076904
2018-12-24T00:53:22.633Z,5.117188
2018-12-24T00:58:45.468Z,5.1474
2018-12-24T01:04:08.347Z,5.167542
2018-12-24T01:09:31.102Z,5.187683
2018-12-24T01:14:54.167Z,5.227966
2018-12-24T01:20:26.202Z,5.258179
2018-12-24T01:25:49.353Z,5.318604
2018-12-24T01:31:12.269Z,5.368958
2018-12-24T01:36:44.329Z,5.348816
2018-12-24T01:42:16.344Z,5.409241
2018-12-24T01:47:39.679Z,5.469666
2018-12-24T01:53:11.847Z,5.479736
2018-12-24T01:58:34.696Z,5.550232
2018-12-24T02:03:57.525Z,5.509949
2018-12-24T02:09:20.311Z,5.479736
2018-12-24T02:14:43.092Z,5.52002
2018-12-24T02:20:06.596Z,5.469666
2018-12-24T02:25:30.016Z,5.469666
2018-12-24T02:30:52.722Z,5.439453
2018-12-24T02:36:15.576Z,5.469666
2018-12-24T02:41:38.346Z,5.439453
2018-12-24T02:47:01.091Z,5.489807
2018-12-24T02:52:26.258Z,5.469666
2018-12-24T02:57:49.378Z,5.449524
2018-12-24T03:03:12.200Z,5.449524
2018-12-24T03:08:43.846Z,5.489807
2018-12-24T03:14:15.877Z,5.509949
2018-12-24T03:19:38.869Z,5.479736
2018-12-24T03:25:01.569Z,5.489807
2018-12-24T03:30:24.357Z,5.489807
2018-12-24T03:35:47.090Z,5.439453
2018-12-24T03:41:09.906Z,5.409241
2018-12-24T03:46:32.839Z,5.419312
2018-12-24T03:52:05.945Z,5.368958
2018-12-24T03:57:37.950Z,5.328674
2018-12-24T04:03:02.047Z,5.298462
2018-12-24T04:08:24.734Z,5.298462
2018-12-24T04:13:47.830Z,5.298462
2018-12-24T04:19:19.503Z,5.258179
2018-12-24T04:24:42.332Z,5.238037
2018-12-24T04:30:06.070Z,5.238037
2018-12-24T04:35:28.963Z,5.288391
2018-12-24T04:40:51.707Z,5.26825
2018-12-24T04:46:14.771Z,5.26825
2018-12-24T04:51:37.599Z,5.187683
2018-12-24T04:57:09.581Z,5.197754
2018-12-24T05:02:42.515Z,5.167542
2018-12-24T05:08:14.600Z,5.227966
2018-12-24T05:13:46.623Z,5.1474
2018-12-24T05:19:18.603Z,5.056763
2018-12-24T05:24:52.136Z,5.056763
2018-12-24T05:30:15.199Z,5.006409
2018-12-24T05:35:46.559Z,4.986267
2018-12-24T05:41:09.828Z,5.016479
2018-12-24T05:46:32.525Z,4.966125
2018-12-24T05:51:55.401Z,4.875488
2018-12-24T05:57:27.724Z,4.77478
2018-12-24T06:02:51.122Z,4.744568
2018-12-24T06:08:24.841Z,4.64386
2018-12-24T06:13:58.019Z,4.563293
2018-12-24T06:19:19.729Z,4.422302
2018-12-24T06:24:42.496Z,4.311523
2018-12-24T06:30:05.341Z,4.281311
2018-12-24T06:35:28.091Z,4.261169
2018-12-24T06:41:01.436Z,4.210815
2018-12-24T06:46:33.333Z,4.110107
2018-12-24T06:52:05.154Z,4.069824
2018-12-24T06:57:29.972Z,4.059753
2018-12-24T07:02:52.986Z,4.069824
2018-12-24T07:08:25.416Z,4.01947
2018-12-24T07:13:48.355Z,3.948975
2018-12-24T07:19:11.446Z,3.838196
2018-12-24T07:24:34.810Z,3.807983
2018-12-24T07:29:57.419Z,3.797913
2018-12-24T07:35:20.169Z,3.797913
2018-12-24T07:40:42.921Z,3.747559
2018-12-24T07:46:05.683Z,3.405151
2018-12-24T07:51:28.480Z,3.233948
2018-12-24T07:56:51.351Z,2.921753
2018-12-24T08:02:14.102Z,2.891541
2018-12-24T08:07:37.359Z,2.740479
2018-12-24T08:13:00.259Z,2.579346
2018-12-24T08:18:23.112Z,2.398071
2018-12-24T08:23:54.965Z,2.267151
2018-12-24T08:29:17.882Z,1.954956
2018-12-24T08:34:49.298Z,2.075806
2018-12-24T08:40:12.327Z,2.267151
2018-12-24T08:45:35.671Z,2.357788
2018-12-24T08:50:59.153Z,2.690125
2018-12-24T09:02:14.027Z,2.710266
2018-12-24T09:07:37.583Z,2.659912
2018-12-24T09:13:01.095Z,2.498779
2018-12-24T09:18:23.869Z,2.6297
2018-12-24T09:23:46.492Z,2.790833
2018-12-24T09:29:10.253Z,2.972107
2018-12-24T09:34:34.019Z,3.173523
2018-12-24T09:39:56.743Z,3.254089
2018-12-24T09:45:29.007Z,3.284302
2018-12-24T09:50:52.239Z,3.304443
2018-12-24T09:56:14.846Z,3.445435
2018-12-24T10:01:37.519Z,3.495789
2018-12-24T10:07:00.955Z,3.677063
2018-12-24T10:12:33.953Z,3.747559
2018-12-24T10:17:56.690Z,3.707275
2018-12-24T10:23:19.631Z,3.807983
2018-12-24T10:28:43.245Z,3.747559
2018-12-24T10:34:05.971Z,3.737488
2018-12-24T10:39:28.634Z,3.797913
2018-12-24T10:44:52.449Z,3.858337
2018-12-24T10:50:15.218Z,3.88855
2018-12-24T10:55:37.857Z,3.747559
2018-12-24T11:01:00.824Z,3.677063
2018-12-24T11:06:23.948Z,4.110107
2018-12-24T11:11:46.694Z,4.210815
2018-12-24T11:17:09.443Z,4.241028
2018-12-24T11:22:32.192Z,4.311523
2018-12-24T11:27:55.001Z,4.281311
2018-12-24T11:33:18.278Z,4.170532
2018-12-24T11:38:41.643Z,4.200745
2018-12-24T11:44:04.526Z,3.999329
2018-12-24T11:49:27.472Z,3.979187
2018-12-24T11:54:51.389Z,3.999329
2018-12-24T12:00:14.164Z,4.291382
2018-12-24T12:05:36.970Z,4.210815
2018-12-24T12:11:01.577Z,4.14032
2018-12-24T12:16:22.971Z,4.543152
2018-12-24T12:21:46.053Z,4.472656
2018-12-24T12:27:09.419Z,4.472656
2018-12-24T12:32:32.172Z,4.653931
2018-12-24T12:37:54.835Z,4.865417
2018-12-24T12:43:18.698Z,5.006409
2018-12-24T12:48:41.504Z,5.318604
2018-12-24T12:54:04.354Z,5.298462
2018-12-24T12:59:27.136Z,5.086975
2018-12-24T13:04:51.584Z,5.076904
2018-12-24T13:10:14.465Z,4.89563
2018-12-24T13:15:37.471Z,4.935913
2018-12-24T13:21:00.514Z,4.77478
2018-12-24T13:26:23.405Z,4.543152
2018-12-24T13:31:46.089Z,4.674072
2018-12-24T13:37:08.806Z,4.744568
2018-12-24T13:42:31.659Z,4.855347
2018-12-24T13:47:54.328Z,4.825134
2018-12-24T13:53:17.047Z,4.905701
2018-12-24T13:58:39.751Z,5.016479
2018-12-24T14:04:02.456Z,4.986267
2018-12-24T14:09:25.258Z,4.935913
2018-12-24T14:14:47.971Z,4.855347
2018-12-24T14:20:10.666Z,4.825134
2018-12-24T14:25:34.118Z,4.714355
2018-12-24T14:30:57.100Z,4.653931
2018-12-24T14:36:19.964Z,4.64386
2018-12-24T14:41:42.731Z,4.573364
2018-12-24T14:47:05.408Z,4.563293
2018-12-24T14:52:28.110Z,4.543152
2018-12-24T14:57:50.899Z,4.512939
2018-12-24T15:03:14.787Z,4.472656
2018-12-24T15:08:37.501Z,4.432373
2018-12-24T15:14:00.214Z,4.432373
2018-12-24T15:19:22.912Z,4.432373
2018-12-24T15:24:45.615Z,4.382019
2018-12-24T15:30:08.417Z,4.311523
2018-12-24T15:35:31.047Z,4.241028
2018-12-24T15:40:54.026Z,4.170532
2018-12-24T15:46:17.207Z,4.200745
2018-12-24T15:51:40.126Z,4.180603
2018-12-24T15:57:03.097Z,4.291382
2018-12-24T16:02:25.852Z,4.200745
2018-12-24T16:07:48.642Z,4.059753
2018-12-24T16:13:11.384Z,4.039612
2018-12-24T16:18:34.146Z,3.989258
2018-12-24T16:23:56.944Z,3.898621
2018-12-24T16:29:19.966Z,3.898621
2018-12-24T16:34:42.890Z,3.948975
2018-12-24T16:40:05.928Z,3.979187
2018-12-24T16:45:28.776Z,4.130249
2018-12-24T16:50:51.487Z,4.059753
2018-12-24T16:56:14.228Z,4.059753
2018-12-24T17:01:37.021Z,3.979187
2018-12-24T17:06:59.838Z,3.838196
2018-12-24T17:12:22.532Z,3.797913
2018-12-24T17:17:45.253Z,3.807983
